sensor_id;sensor_type;location;lat;lon;timestamp;pressure;altitude;pressure_sealevel;temperature;humidity
42415;BME280;28058;46.344;17.786;2022-07-06T00:02:25;155864.06;;;17.40;100.00
42415;BME280;28058;46.344;17.786;2022-07-06T00:04:52;155862.78;;;17.39;100.00
42415;BME280;28058;46.344;17.786;2022-07-06T00:07:19;155855.06;;;17.36;100.00
42415;BME280;28058;46.344;17.786;2022-07-06T00:09:46;155837.13;;;17.29;100.00
42415;BME280;28058;46.344;17.786;2022-07-06T00:12:13;155825.59;;;17.24;100.00
42415;BME280;28058;46.344;17.786;2022-07-06T00:14:40;155807.66;;;17.17;100.00
42415;BME280;28058;46.344;17.786;2022-07-06T00:17:07;155802.53;;;17.15;100.00
42415;BME280;28058;46.344;17.786;2022-07-06T00:19:34;155788.44;;;17.10;100.00
42415;BME280;28058;46.344;17.786;2022-07-06T00:22:01;155780.72;;;17.07;100.00
42415;BME280;28058;46.344;17.786;2022-07-06T00:24:28;155771.75;;;17.03;100.00
42415;BME280;28058;46.344;17.786;2022-07-06T00:26:55;155765.34;;;17.00;100.00
42415;BME280;28058;46.344;17.786;2022-07-06T00:29:22;155767.91;;;17.01;100.00
42415;BME280;28058;46.344;17.786;2022-07-06T00:31:48;155765.34;;;17.00;100.00
42415;BME280;28058;46.344;17.786;2022-07-06T00:34:15;155756.38;;;16.97;100.00
42415;BME280;28058;46.344;17.786;2022-07-06T00:36:42;155753.81;;;16.96;100.00
42415;BME280;28058;46.344;17.786;2022-07-06T00:39:09;155748.69;;;16.94;100.00
42415;BME280;28058;46.344;17.786;2022-07-06T00:41:36;155744.84;;;16.92;100.00
42415;BME280;28058;46.344;17.786;2022-07-06T00:44:07;155735.88;;;16.89;100.00
42415;BME280;28058;46.344;17.786;2022-07-06T00:46:35;155732.03;;;16.87;100.00
42415;BME280;28058;46.344;17.786;2022-07-06T00:49:02;155726.91;;;16.85;100.00
42415;BME280;28058;46.344;17.786;2022-07-06T00:51:32;155724.34;;;16.84;100.00
42415;BME280;28058;46.344;17.786;2022-07-06T00:54:02;155719.22;;;16.82;100.00
42415;BME280;28058;46.344;17.786;2022-07-06T00:56:31;155723.06;;;16.84;100.00
42415;BME280;28058;46.344;17.786;2022-07-06T00:59:00;155717.94;;;16.82;100.00
42415;BME280;28058;46.344;17.786;2022-07-06T01:01:27;155715.38;;;16.81;100.00
42415;BME280;28058;46.344;17.786;2022-07-06T01:03:54;155711.53;;;16.79;100.00
42415;BME280;28058;46.344;17.786;2022-07-06T01:06:21;155720.50;;;16.83;100.00
42415;BME280;28058;46.344;17.786;2022-07-06T01:08:48;155720.50;;;16.83;100.00
42415;BME280;28058;46.344;17.786;2022-07-06T01:11:17;155717.94;;;16.82;100.00
42415;BME280;28058;46.344;17.786;2022-07-06T01:13:45;155711.53;;;16.79;100.00
42415;BME280;28058;46.344;17.786;2022-07-06T01:16:12;155710.25;;;16.79;100.00
42415;BME280;28058;46.344;17.786;2022-07-06T01:18:39;155698.72;;;16.74;100.00
42415;BME280;28058;46.344;17.786;2022-07-06T01:21:11;155721.78;;;16.83;100.00
42415;BME280;28058;46.344;17.786;2022-07-06T01:23:43;155721.78;;;16.83;100.00
42415;BME280;28058;46.344;17.786;2022-07-06T01:26:16;155735.88;;;16.89;100.00
42415;BME280;28058;46.344;17.786;2022-07-06T01:28:51;155720.50;;;16.83;100.00
42415;BME280;28058;46.344;17.786;2022-07-06T01:33:48;155705.13;;;16.77;100.00
42415;BME280;28058;46.344;17.786;2022-07-06T01:36:15;155701.28;;;16.75;100.00
42415;BME280;28058;46.344;17.786;2022-07-06T01:38:50;155691.03;;;16.71;100.00
42415;BME280;28058;46.344;17.786;2022-07-06T01:41:19;155693.59;;;16.72;100.00
42415;BME280;28058;46.344;17.786;2022-07-06T01:43:46;155685.91;;;16.69;100.00
42415;BME280;28058;46.344;17.786;2022-07-06T01:46:13;155693.59;;;16.72;100.00
42415;BME280;28058;46.344;17.786;2022-07-06T01:48:40;155707.69;;;16.78;100.00
42415;BME280;28058;46.344;17.786;2022-07-06T01:51:07;155701.28;;;16.75;100.00
42415;BME280;28058;46.344;17.786;2022-07-06T01:53:35;155689.75;;;16.70;100.00
42415;BME280;28058;46.344;17.786;2022-07-06T01:56:02;155693.59;;;16.72;100.00
42415;BME280;28058;46.344;17.786;2022-07-06T01:58:29;155688.47;;;16.70;100.00
42415;BME280;28058;46.344;17.786;2022-07-06T02:00:56;155697.44;;;16.74;100.00
42415;BME280;28058;46.344;17.786;2022-07-06T02:03:23;155700.00;;;16.75;100.00
42415;BME280;28058;46.344;17.786;2022-07-06T02:05:51;155692.31;;;16.71;100.00
42415;BME280;28058;46.344;17.786;2022-07-06T02:08:18;155674.31;;;16.64;100.00
42415;BME280;28058;46.344;17.786;2022-07-06T02:10:45;155662.78;;;16.60;100.00
42415;BME280;28058;46.344;17.786;2022-07-06T02:13:12;155655.09;;;16.57;100.00
42415;BME280;28058;46.344;17.786;2022-07-06T02:15:39;155649.97;;;16.55;100.00
42415;BME280;28058;46.344;17.786;2022-07-06T02:18:06;155647.41;;;16.54;100.00
42415;BME280;28058;46.344;17.786;2022-07-06T02:20:34;155629.47;;;16.47;100.00
42415;BME280;28058;46.344;17.786;2022-07-06T02:23:00;155646.13;;;16.53;100.00
42415;BME280;28058;46.344;17.786;2022-07-06T02:25:27;155628.19;;;16.46;100.00
42415;BME280;28058;46.344;17.786;2022-07-06T02:27:54;155615.38;;;16.41;100.00
42415;BME280;28058;46.344;17.786;2022-07-06T02:30:21;155601.28;;;16.35;100.00
42415;BME280;28058;46.344;17.786;2022-07-06T02:32:48;155594.88;;;16.33;100.00
42415;BME280;28058;46.344;17.786;2022-07-06T02:35:15;155593.59;;;16.32;100.00
42415;BME280;28058;46.344;17.786;2022-07-06T02:37:42;155591.03;;;16.31;100.00
42415;BME280;28058;46.344;17.786;2022-07-06T02:40:09;155587.19;;;16.30;100.00
42415;BME280;28058;46.344;17.786;2022-07-06T02:42:36;155588.47;;;16.30;100.00
42415;BME280;28058;46.344;17.786;2022-07-06T02:45:03;155589.75;;;16.31;100.00
42415;BME280;28058;46.344;17.786;2022-07-06T02:47:30;155576.94;;;16.26;100.00
42415;BME280;28058;46.344;17.786;2022-07-06T02:49:57;155566.69;;;16.22;100.00
42415;BME280;28058;46.344;17.786;2022-07-06T02:52:24;155565.41;;;16.21;100.00
42415;BME280;28058;46.344;17.786;2022-07-06T02:54:51;155559.00;;;16.19;100.00
42415;BME280;28058;46.344;17.786;2022-07-06T02:57:17;155555.16;;;16.17;100.00
42415;BME280;28058;46.344;17.786;2022-07-06T02:59:44;155552.59;;;16.16;100.00
42415;BME280;28058;46.344;17.786;2022-07-06T03:02:12;155566.69;;;16.22;100.00
42415;BME280;28058;46.344;17.786;2022-07-06T03:04:39;155566.69;;;16.22;100.00
42415;BME280;28058;46.344;17.786;2022-07-06T03:07:05;155564.13;;;16.21;100.00
42415;BME280;28058;46.344;17.786;2022-07-06T03:09:32;155559.00;;;16.19;100.00
42415;BME280;28058;46.344;17.786;2022-07-06T03:11:59;155564.13;;;16.21;100.00
42415;BME280;28058;46.344;17.786;2022-07-06T03:14:26;155557.72;;;16.18;100.00
42415;BME280;28058;46.344;17.786;2022-07-06T03:16:53;155555.16;;;16.17;100.00
42415;BME280;28058;46.344;17.786;2022-07-06T03:19:20;155552.59;;;16.16;100.00
42415;BME280;28058;46.344;17.786;2022-07-06T03:21:48;155567.97;;;16.22;100.00
42415;BME280;28058;46.344;17.786;2022-07-06T03:24:14;155573.09;;;16.24;100.00
42415;BME280;28058;46.344;17.786;2022-07-06T03:26:41;155579.50;;;16.27;100.00
42415;BME280;28058;46.344;17.786;2022-07-06T03:29:08;155585.91;;;16.29;100.00
42415;BME280;28058;46.344;17.786;2022-07-06T03:31:35;155584.63;;;16.29;100.00
42415;BME280;28058;46.344;17.786;2022-07-06T03:34:02;155606.41;;;16.37;100.00
42415;BME280;28058;46.344;17.786;2022-07-06T03:36:29;155608.97;;;16.38;100.00
42415;BME280;28058;46.344;17.786;2022-07-06T03:39:03;155625.63;;;16.45;100.00
42415;BME280;28058;46.344;17.786;2022-07-06T03:41:30;155610.25;;;16.39;100.00
42415;BME280;28058;46.344;17.786;2022-07-06T03:43:57;155625.63;;;16.45;100.00
42415;BME280;28058;46.344;17.786;2022-07-06T03:46:25;155641.00;;;16.51;100.00
42415;BME280;28058;46.344;17.786;2022-07-06T03:48:52;155643.56;;;16.52;100.00
42415;BME280;28058;46.344;17.786;2022-07-06T03:51:18;155649.97;;;16.55;100.00
42415;BME280;28058;46.344;17.786;2022-07-06T03:53:45;155660.22;;;16.59;100.00
42415;BME280;28058;46.344;17.786;2022-07-06T03:56:12;155657.66;;;16.58;100.00
42415;BME280;28058;46.344;17.786;2022-07-06T03:58:56;155666.63;;;16.61;100.00
42415;BME280;28058;46.344;17.786;2022-07-06T04:01:23;155691.03;;;16.71;100.00
42415;BME280;28058;46.344;17.786;2022-07-06T04:03:50;155721.78;;;16.83;100.00
42415;BME280;28058;46.344;17.786;2022-07-06T04:06:18;155941.03;;;17.70;100.00
42415;BME280;28058;46.344;17.786;2022-07-06T04:08:45;156372.19;;;19.41;100.00
42415;BME280;28058;46.344;17.786;2022-07-06T04:11:12;156774.31;;;21.00;100.00
42415;BME280;28058;46.344;17.786;2022-07-06T04:13:39;157043.06;;;22.06;100.00
42415;BME280;28058;46.344;17.786;2022-07-06T04:16:06;157205.09;;;22.70;100.00
42415;BME280;28058;46.344;17.786;2022-07-06T04:18:33;157384.03;;;23.40;94.28
42415;BME280;28058;46.344;17.786;2022-07-06T04:21:00;157524.38;;;23.96;87.52
42415;BME280;28058;46.344;17.786;2022-07-06T04:23:29;157714.97;;;24.71;80.87
42415;BME280;28058;46.344;17.786;2022-07-06T04:25:56;157672.47;;;24.54;78.20
42415;BME280;28058;46.344;17.786;2022-07-06T04:28:23;157783.28;;;24.98;74.91
42415;BME280;28058;46.344;17.786;2022-07-06T04:30:50;157846.38;;;25.23;72.28
42415;BME280;28058;46.344;17.786;2022-07-06T04:33:17;157934.00;;;25.57;68.86
42415;BME280;28058;46.344;17.786;2022-07-06T04:35:44;158084.88;;;26.17;66.44
42415;BME280;28058;46.344;17.786;2022-07-06T04:38:11;158051.34;;;26.04;64.45
42415;BME280;28058;46.344;17.786;2022-07-06T04:40:38;158203.50;;;26.64;60.89
42415;BME280;28058;46.344;17.786;2022-07-06T04:43:05;158309.28;;;27.05;59.93
42415;BME280;28058;46.344;17.786;2022-07-06T04:45:32;158323.47;;;27.11;56.71
42415;BME280;28058;46.344;17.786;2022-07-06T04:47:59;158338.94;;;27.17;56.76
42415;BME280;28058;46.344;17.786;2022-07-06T04:50:26;158333.78;;;27.15;56.88
42415;BME280;28058;46.344;17.786;2022-07-06T04:52:53;158372.47;;;27.30;55.29
42415;BME280;28058;46.344;17.786;2022-07-06T04:55:20;158342.81;;;27.18;57.08
42415;BME280;28058;46.344;17.786;2022-07-06T04:57:47;158304.13;;;27.03;57.41
42415;BME280;28058;46.344;17.786;2022-07-06T05:00:14;158233.16;;;26.75;59.90
42415;BME280;28058;46.344;17.786;2022-07-06T05:02:41;158386.66;;;27.36;54.05
42415;BME280;28058;46.344;17.786;2022-07-06T05:05:08;158529.88;;;27.92;52.68
42415;BME280;28058;46.344;17.786;2022-07-06T05:07:36;158536.34;;;27.95;51.96
42415;BME280;28058;46.344;17.786;2022-07-06T05:10:10;158500.22;;;27.80;51.47
42415;BME280;28058;46.344;17.786;2022-07-06T05:12:38;158719.66;;;28.67;48.85
42415;BME280;28058;46.344;17.786;2022-07-06T05:15:05;158642.19;;;28.36;47.31
42415;BME280;28058;46.344;17.786;2022-07-06T05:17:32;158640.91;;;28.36;48.56
42415;BME280;28058;46.344;17.786;2022-07-06T05:19:59;158578.91;;;28.11;48.33
42415;BME280;28058;46.344;17.786;2022-07-06T05:22:26;158668.00;;;28.46;47.63
42415;BME280;28058;46.344;17.786;2022-07-06T05:24:53;158662.84;;;28.44;45.50
42415;BME280;28058;46.344;17.786;2022-07-06T05:27:20;158633.16;;;28.33;46.65
42415;BME280;28058;46.344;17.786;2022-07-06T05:29:47;158704.19;;;28.61;46.70
42415;BME280;28058;46.344;17.786;2022-07-06T05:32:14;158773.94;;;28.88;44.22
42415;BME280;28058;46.344;17.786;2022-07-06T05:34:41;158873.34;;;29.27;43.29
42415;BME280;28058;46.344;17.786;2022-07-06T05:37:08;158798.47;;;28.98;43.44
42415;BME280;28058;46.344;17.786;2022-07-06T05:39:34;158922.44;;;29.47;42.75
42415;BME280;28058;46.344;17.786;2022-07-06T05:42:06;158766.19;;;28.85;42.34
42415;BME280;28058;46.344;17.786;2022-07-06T05:44:34;158821.69;;;29.07;43.67
42415;BME280;28058;46.344;17.786;2022-07-06T05:47:00;158987.00;;;29.72;42.90
42415;BME280;28058;46.344;17.786;2022-07-06T05:49:46;159078.75;;;30.08;42.04
42415;BME280;28058;46.344;17.786;2022-07-06T05:52:31;159161.41;;;30.40;40.40
42415;BME280;28058;46.344;17.786;2022-07-06T05:54:58;159161.41;;;30.40;40.79
42415;BME280;28058;46.344;17.786;2022-07-06T05:57:25;159210.56;;;30.60;39.83
42415;BME280;28058;46.344;17.786;2022-07-06T05:59:52;159236.41;;;30.70;39.93
42415;BME280;28058;46.344;17.786;2022-07-06T06:02:19;159361.78;;;31.19;38.89
42415;BME280;28058;46.344;17.786;2022-07-06T06:04:46;159328.16;;;31.06;39.03
42415;BME280;28058;46.344;17.786;2022-07-06T06:07:13;159343.66;;;31.12;39.37
42415;BME280;28058;46.344;17.786;2022-07-06T06:09:40;159322.97;;;31.04;39.19
42415;BME280;28058;46.344;17.786;2022-07-06T06:12:07;159377.34;;;31.25;39.44
42415;BME280;28058;46.344;17.786;2022-07-06T06:14:34;159213.16;;;30.61;39.38
42415;BME280;28058;46.344;17.786;2022-07-06T06:17:01;159374.75;;;31.24;39.38
42415;BME280;28058;46.344;17.786;2022-07-06T06:19:27;159476.88;;;31.64;37.38
42415;BME280;28058;46.344;17.786;2022-07-06T06:21:54;159615.25;;;32.19;36.73
42415;BME280;28058;46.344;17.786;2022-07-06T06:24:21;158921.16;;;29.46;38.99
42415;BME280;28058;46.344;17.786;2022-07-06T06:26:50;159302.28;;;30.96;37.46
42415;BME280;28058;46.344;17.786;2022-07-06T06:29:17;159308.75;;;30.98;37.44
42415;BME280;28058;46.344;17.786;2022-07-06T06:31:44;159267.41;;;30.82;37.40
42415;BME280;28058;46.344;17.786;2022-07-06T06:34:11;159138.16;;;30.31;38.34
42415;BME280;28058;46.344;17.786;2022-07-06T06:36:37;159127.84;;;30.27;38.98
42415;BME280;28058;46.344;17.786;2022-07-06T06:39:04;159149.78;;;30.36;38.21
42415;BME280;28058;46.344;17.786;2022-07-06T06:41:31;159299.72;;;30.95;36.85
42415;BME280;28058;46.344;17.786;2022-07-06T06:43:58;159480.75;;;31.66;35.67
42415;BME280;28058;46.344;17.786;2022-07-06T06:46:25;159417.41;;;31.41;35.86
42415;BME280;28058;46.344;17.786;2022-07-06T06:48:52;159478.16;;;31.65;34.83
42415;BME280;28058;46.344;17.786;2022-07-06T06:51:18;159461.34;;;31.58;34.46
42415;BME280;28058;46.344;17.786;2022-07-06T06:53:47;159591.97;;;32.10;34.60
42415;BME280;28058;46.344;17.786;2022-07-06T06:56:14;159275.16;;;30.85;36.38
42415;BME280;28058;46.344;17.786;2022-07-06T06:58:41;158806.19;;;29.01;39.85
42415;BME280;28058;46.344;17.786;2022-07-06T07:01:28;159467.81;;;31.61;36.37
42415;BME280;28058;46.344;17.786;2022-07-06T07:03:56;159632.13;;;32.25;33.78
42415;BME280;28058;46.344;17.786;2022-07-06T07:06:23;159726.50;;;32.63;33.67
42415;BME280;28058;46.344;17.786;2022-07-06T07:08:50;159863.66;;;33.16;32.35
42415;BME280;28058;46.344;17.786;2022-07-06T07:11:17;159965.91;;;33.56;31.47
42415;BME280;28058;46.344;17.786;2022-07-06T07:13:43;159883.06;;;33.24;31.63
42415;BME280;28058;46.344;17.786;2022-07-06T07:16:10;159923.22;;;33.40;31.96
42415;BME280;28058;46.344;17.786;2022-07-06T07:18:37;159611.38;;;32.17;32.43
42415;BME280;28058;46.344;17.786;2022-07-06T07:21:04;159629.53;;;32.24;34.08
42415;BME280;28058;46.344;17.786;2022-07-06T07:23:31;159818.38;;;32.99;31.99
42415;BME280;28058;46.344;17.786;2022-07-06T07:25:58;160002.16;;;33.71;30.99
42415;BME280;28058;46.344;17.786;2022-07-06T07:28:25;160007.31;;;33.73;29.70
42415;BME280;28058;46.344;17.786;2022-07-06T07:30:52;160048.81;;;33.89;29.48
42415;BME280;28058;46.344;17.786;2022-07-06T07:33:19;159925.81;;;33.41;30.35
42415;BME280;28058;46.344;17.786;2022-07-06T07:35:47;159734.28;;;32.66;32.47
42415;BME280;28058;46.344;17.786;2022-07-06T07:38:13;159338.47;;;31.10;32.94
42415;BME280;28058;46.344;17.786;2022-07-06T07:40:40;159734.28;;;32.66;32.88
42415;BME280;28058;46.344;17.786;2022-07-06T07:43:07;159974.97;;;33.60;31.04
42415;BME280;28058;46.344;17.786;2022-07-06T07:45:34;160016.38;;;33.76;30.66
42415;BME280;28058;46.344;17.786;2022-07-06T07:48:01;160028.13;;;33.81;30.21
42415;BME280;28058;46.344;17.786;2022-07-06T07:50:28;159981.44;;;33.63;30.09
42415;BME280;28058;46.344;17.786;2022-07-06T07:52:56;159980.16;;;33.62;30.68
42415;BME280;28058;46.344;17.786;2022-07-06T07:55:23;160195.13;;;34.46;29.95
42415;BME280;28058;46.344;17.786;2022-07-06T07:58:08;160300.03;;;34.88;28.77
42415;BME280;28058;46.344;17.786;2022-07-06T08:00:35;160296.16;;;34.86;29.06
42415;BME280;28058;46.344;17.786;2022-07-06T08:03:02;160417.91;;;35.34;28.25
42415;BME280;28058;46.344;17.786;2022-07-06T08:05:29;160454.16;;;35.48;28.76
42415;BME280;28058;46.344;17.786;2022-07-06T08:07:56;160340.16;;;35.03;27.39
42415;BME280;28058;46.344;17.786;2022-07-06T08:10:23;160151.06;;;34.29;29.77
42415;BME280;28058;46.344;17.786;2022-07-06T08:12:50;160210.66;;;34.53;29.04
42415;BME280;28058;46.344;17.786;2022-07-06T08:15:17;160389.38;;;35.23;28.06
42415;BME280;28058;46.344;17.786;2022-07-06T08:17:44;160345.34;;;35.05;28.54
42415;BME280;28058;46.344;17.786;2022-07-06T08:20:12;160357.00;;;35.10;28.66
42415;BME280;28058;46.344;17.786;2022-07-06T08:22:39;160318.16;;;34.95;27.36
42415;BME280;28058;46.344;17.786;2022-07-06T08:25:06;160315.56;;;34.94;28.32
42415;BME280;28058;46.344;17.786;2022-07-06T08:27:33;160420.50;;;35.35;28.13
42415;BME280;28058;46.344;17.786;2022-07-06T08:30:01;160327.22;;;34.98;27.72
42415;BME280;28058;46.344;17.786;2022-07-06T08:32:28;160452.88;;;35.48;27.74
42415;BME280;28058;46.344;17.786;2022-07-06T08:35:15;160233.97;;;34.62;27.15
42415;BME280;28058;46.344;17.786;2022-07-06T08:37:42;160373.84;;;35.17;27.52
42415;BME280;28058;46.344;17.786;2022-07-06T08:40:10;160451.56;;;35.47;27.05
42415;BME280;28058;46.344;17.786;2022-07-06T08:42:36;160630.38;;;36.17;27.39
42415;BME280;28058;46.344;17.786;2022-07-06T08:45:06;160666.69;;;36.31;26.43
42415;BME280;28058;46.344;17.786;2022-07-06T08:47:35;160447.69;;;35.45;27.64
42415;BME280;28058;46.344;17.786;2022-07-06T08:50:05;159977.56;;;33.61;28.41
42415;BME280;28058;46.344;17.786;2022-07-06T08:52:32;160098.00;;;34.08;28.47
42415;BME280;28058;46.344;17.786;2022-07-06T08:54:59;159985.31;;;33.64;27.60
42415;BME280;28058;46.344;17.786;2022-07-06T08:57:28;160051.41;;;33.90;29.15
42415;BME280;28058;46.344;17.786;2022-07-06T08:59:55;159886.94;;;33.25;29.53
42415;BME280;28058;46.344;17.786;2022-07-06T09:02:24;159492.44;;;31.71;30.04
42415;BME280;28058;46.344;17.786;2022-07-06T09:04:56;159363.09;;;31.20;31.98
42415;BME280;28058;46.344;17.786;2022-07-06T09:07:27;159374.75;;;31.24;32.16
42415;BME280;28058;46.344;17.786;2022-07-06T09:10:15;159144.63;;;30.34;33.58
42415;BME280;28058;46.344;17.786;2022-07-06T09:12:43;159189.84;;;30.52;34.25
42415;BME280;28058;46.344;17.786;2022-07-06T09:15:10;159126.53;;;30.27;33.80
42415;BME280;28058;46.344;17.786;2022-07-06T09:17:39;159344.94;;;31.13;32.82
42415;BME280;28058;46.344;17.786;2022-07-06T09:20:11;159272.56;;;30.84;32.39
42415;BME280;28058;46.344;17.786;2022-07-06T09:22:39;159156.25;;;30.38;33.42
42415;BME280;28058;46.344;17.786;2022-07-06T09:27:51;158994.75;;;29.75;34.31
42415;BME280;28058;46.344;17.786;2022-07-06T09:30:22;159123.97;;;30.26;34.86
42415;BME280;28058;46.344;17.786;2022-07-06T09:32:51;159030.91;;;29.89;36.41
42415;BME280;28058;46.344;17.786;2022-07-06T09:35:31;159067.13;;;30.03;35.72
42415;BME280;28058;46.344;17.786;2022-07-06T09:38:09;159191.13;;;30.52;34.73
42415;BME280;28058;46.344;17.786;2022-07-06T09:40:39;159139.47;;;30.32;34.45
42415;BME280;28058;46.344;17.786;2022-07-06T09:45:38;159134.28;;;30.30;35.46
42415;BME280;28058;46.344;17.786;2022-07-06T09:48:16;159166.59;;;30.43;34.76
42415;BME280;28058;46.344;17.786;2022-07-06T09:50:55;159068.41;;;30.04;33.94
42415;BME280;28058;46.344;17.786;2022-07-06T09:53:24;158750.66;;;28.79;36.43
42415;BME280;28058;46.344;17.786;2022-07-06T09:55:53;158958.59;;;29.61;35.70
42415;BME280;28058;46.344;17.786;2022-07-06T09:58:21;159047.69;;;29.96;35.07
42415;BME280;28058;46.344;17.786;2022-07-06T10:01:09;158921.16;;;29.46;33.32
42415;BME280;28058;46.344;17.786;2022-07-06T10:03:36;158761.03;;;28.83;34.79
42415;BME280;28058;46.344;17.786;2022-07-06T10:06:04;158829.44;;;29.10;34.88
42415;BME280;28058;46.344;17.786;2022-07-06T10:08:32;158927.59;;;29.49;35.11
42415;BME280;28058;46.344;17.786;2022-07-06T10:11:00;158934.06;;;29.51;34.94
42415;BME280;28058;46.344;17.786;2022-07-06T10:13:28;158842.34;;;29.15;34.71
42415;BME280;28058;46.344;17.786;2022-07-06T10:15:56;158806.19;;;29.01;33.85
42415;BME280;28058;46.344;17.786;2022-07-06T10:18:25;158782.97;;;28.92;34.02
42415;BME280;28058;46.344;17.786;2022-07-06T10:20:53;158750.66;;;28.79;35.82
42415;BME280;28058;46.344;17.786;2022-07-06T10:23:21;158822.97;;;29.07;33.91
42415;BME280;28058;46.344;17.786;2022-07-06T10:25:48;158718.38;;;28.66;34.43
42415;BME280;28058;46.344;17.786;2022-07-06T10:28:17;158825.56;;;29.08;32.74
42415;BME280;28058;46.344;17.786;2022-07-06T10:30:49;158652.50;;;28.40;34.01
42415;BME280;28058;46.344;17.786;2022-07-06T10:33:17;158578.91;;;28.11;35.43
42415;BME280;28058;46.344;17.786;2022-07-06T10:35:54;158801.03;;;28.99;34.88
42415;BME280;28058;46.344;17.786;2022-07-06T10:38:31;158908.19;;;29.41;34.08
42415;BME280;28058;46.344;17.786;2022-07-06T10:41:03;158905.59;;;29.40;32.99
42415;BME280;28058;46.344;17.786;2022-07-06T10:43:44;158967.63;;;29.64;33.67
42415;BME280;28058;46.344;17.786;2022-07-06T10:46:17;158892.69;;;29.35;33.12
42415;BME280;28058;46.344;17.786;2022-07-06T10:48:48;158807.50;;;29.01;32.43
42415;BME280;28058;46.344;17.786;2022-07-06T10:51:24;158860.41;;;29.22;31.99
42415;BME280;28058;46.344;17.786;2022-07-06T10:54:02;158881.06;;;29.30;31.49
42415;BME280;28058;46.344;17.786;2022-07-06T10:56:38;158675.75;;;28.49;32.04
42415;BME280;28058;46.344;17.786;2022-07-06T10:59:13;158538.91;;;27.96;32.46
42415;BME280;28058;46.344;17.786;2022-07-06T11:01:41;158799.75;;;28.98;32.87
42415;BME280;28058;46.344;17.786;2022-07-06T11:04:14;158755.81;;;28.81;34.19
42415;BME280;28058;46.344;17.786;2022-07-06T11:06:41;158678.31;;;28.50;32.80
42415;BME280;28058;46.344;17.786;2022-07-06T11:09:14;158651.22;;;28.40;32.28
42415;BME280;28058;46.344;17.786;2022-07-06T11:11:42;158585.38;;;28.14;33.09
42415;BME280;28058;46.344;17.786;2022-07-06T11:14:13;158538.91;;;27.96;33.18
42415;BME280;28058;46.344;17.786;2022-07-06T11:19:22;158740.31;;;28.75;32.18
42415;BME280;28058;46.344;17.786;2022-07-06T11:24:27;158693.81;;;28.57;32.37
42415;BME280;28058;46.344;17.786;2022-07-06T11:26:55;158657.69;;;28.42;32.12
42415;BME280;28058;46.344;17.786;2022-07-06T11:29:25;158674.44;;;28.49;32.99
42415;BME280;28058;46.344;17.786;2022-07-06T11:31:55;158688.66;;;28.55;33.75
42415;BME280;28058;46.344;17.786;2022-07-06T11:34:24;158626.69;;;28.30;32.60
42415;BME280;28058;46.344;17.786;2022-07-06T11:36:59;158567.31;;;28.07;31.74
42415;BME280;28058;46.344;17.786;2022-07-06T11:39:31;158620.25;;;28.28;32.14
42415;BME280;28058;46.344;17.786;2022-07-06T11:41:59;158631.88;;;28.32;32.08
42415;BME280;28058;46.344;17.786;2022-07-06T11:44:27;158810.06;;;29.02;32.29
42415;BME280;28058;46.344;17.786;2022-07-06T11:46:54;158692.53;;;28.56;32.82
42415;BME280;28058;46.344;17.786;2022-07-06T11:49:26;158866.88;;;29.25;33.16
42415;BME280;28058;46.344;17.786;2022-07-06T11:51:54;158881.06;;;29.30;31.51
42415;BME280;28058;46.344;17.786;2022-07-06T11:54:22;158859.13;;;29.22;30.98
42415;BME280;28058;46.344;17.786;2022-07-06T11:56:56;158668.00;;;28.46;31.06
42415;BME280;28058;46.344;17.786;2022-07-06T11:59:27;158680.91;;;28.52;32.53
42415;BME280;28058;46.344;17.786;2022-07-06T12:02:05;158821.69;;;29.07;32.12
42415;BME280;28058;46.344;17.786;2022-07-06T12:04:35;158813.94;;;29.04;29.27
42415;BME280;28058;46.344;17.786;2022-07-06T12:07:04;158860.41;;;29.22;29.99
42415;BME280;28058;46.344;17.786;2022-07-06T12:09:32;158733.88;;;28.72;30.18
42415;BME280;28058;46.344;17.786;2022-07-06T12:11:59;158766.19;;;28.85;28.96
42415;BME280;28058;46.344;17.786;2022-07-06T12:14:31;158934.06;;;29.51;29.87
42415;BME280;28058;46.344;17.786;2022-07-06T12:17:11;158948.25;;;29.57;30.28
42415;BME280;28058;46.344;17.786;2022-07-06T12:19:39;158852.69;;;29.19;29.80
42415;BME280;28058;46.344;17.786;2022-07-06T12:22:07;158798.47;;;28.98;29.51
42415;BME280;28058;46.344;17.786;2022-07-06T12:24:35;158877.22;;;29.29;30.86
42415;BME280;28058;46.344;17.786;2022-07-06T12:27:13;158932.78;;;29.51;30.12
42415;BME280;28058;46.344;17.786;2022-07-06T12:29:40;158878.50;;;29.29;30.09
42415;BME280;28058;46.344;17.786;2022-07-06T12:32:14;158923.72;;;29.47;29.90
42415;BME280;28058;46.344;17.786;2022-07-06T12:34:41;158881.06;;;29.30;30.06
42415;BME280;28058;46.344;17.786;2022-07-06T12:37:09;158953.44;;;29.59;29.35
42415;BME280;28058;46.344;17.786;2022-07-06T12:39:46;158833.31;;;29.11;29.14
42415;BME280;28058;46.344;17.786;2022-07-06T12:42:15;158868.16;;;29.25;29.36
42415;BME280;28058;46.344;17.786;2022-07-06T12:44:54;158775.22;;;28.89;31.14
42415;BME280;28058;46.344;17.786;2022-07-06T12:47:23;158842.34;;;29.15;32.07
42415;BME280;28058;46.344;17.786;2022-07-06T12:50:05;158613.81;;;28.25;29.75
42415;BME280;28058;46.344;17.786;2022-07-06T12:52:33;158695.09;;;28.57;30.21
42415;BME280;28058;46.344;17.786;2022-07-06T12:55:02;158763.59;;;28.84;30.63
42415;BME280;28058;46.344;17.786;2022-07-06T12:57:45;158758.38;;;28.82;30.25